Burley Municipal Airport
KBYI : now visible

Airfield :











YOU CAN JOIN US ON...

 
LOGIN :

Register | Disclaimer

   EN    FR    IT 

 









Legend :    VFR   Marginal VFR   IFR   Intensive IFR   Very Intensive IFR
Visi :
Ceiling :
>= 8 km
>= 3000ft
5 to 8 km
1000 to 3000 ft
1500m to 5 km
500 to 1000 ft
800 to 1500m
200 to 500 ft
< 800m
< 200 ft
Symbols :   Thunderstorms  Fog  Heavy snow  Heavy precipitations  Wind > 20 kt






- Airport Elevation : 4150 ft


KBYI - Burley Municipal

CURRENT METAR :
  • 231953Z AUTO VRB05KT 10SM CLR 08/M01 A3034 RMK AO2 SLP279 T00831011

EXPIRED METARs :
  • 231853Z AUTO 04003KT 10SM CLR 07/M02 A3036 RMK AO2 SLP289 T00721017
  • 231753Z AUTO 16003KT 10SM CLR 04/M01 A3037 RMK AO2 SLP295 T00391011 10039 21033 50003
  • 231653Z AUTO 09003KT 10SM CLR 02/M02 A3037 RMK AO2 SLP298 T00171017
  • 231553Z AUTO 08003KT 10SM CLR M01/M03 A3036 RMK AO2 SLP297 T10061028

TAF KBYI
Valid from the 23 at 18:00 until the 24 at 18:00 UTC


231720Z 2318/2418 VRB05KT P6SM FEW030
FM240300 21006KT P6SM SCT200
KZLC FIR / North America



MET'MAP, your aeronautical weather chart ! - Copyright ORBIFLY December 2007 - Disclaimer

ORBIFLY MET'MAP TEAM :

Programming & Development : Alexandra Zaïnal
Original concept : Baudouin d'Aumeries
Technical & hardware support : Manuel Goepfert
Assistance : Marc-Olivier Méhu




SOURCES & CREDITS :

   NOAA       Earth
Advisory